Time;durP1;ratioP1;P1;durP2;ratioP2;P2;SDS_P1;SDS_P2;PMS_P1;PMS_P2;Temp;Humidity;BMP_temperature;BMP_pressure;BME280_temperature;BME280_humidity;BME280_pressure;Samples;Min_cycle;Max_cycle;Signal;HPM_P1;HPM_P2
2022/03/15 00:01:01;;;;;;;;;;;7.90;99.90;;;;;;5095470;28;20373;-42
2022/03/15 00:03:27;;;;;;;;;;;7.80;99.90;;;;;;5095735;28;19908;-43
2022/03/15 00:05:52;;;;;;;;;;;7.80;99.90;;;;;;5095121;28;19908;-42
2022/03/15 00:08:19;;;;;;;;;;;7.80;99.90;;;;;;5094959;28;20010;-43
2022/03/15 00:10:47;;;;;;;;;;;7.80;99.90;;;;;;5095105;28;20011;-42
2022/03/15 00:13:12;;;;;;;;;;;7.80;99.90;;;;;;5095562;28;19957;-42
2022/03/15 00:15:39;;;;;;;;;;;7.90;99.90;;;;;;5094889;28;19912;-41
2022/03/15 00:18:05;;;;;;;;;;;7.80;99.90;;;;;;5094899;28;19912;-42
2022/03/15 00:20:30;;;;;;;;;;;7.80;99.90;;;;;;5095172;28;19916;-42
2022/03/15 00:22:57;;;;;;;;;;;7.80;99.90;;;;;;5095118;28;20498;-42
2022/03/15 00:25:23;;;;;;;;;;;7.80;99.90;;;;;;5094843;28;20441;-41
2022/03/15 00:27:52;;;;;;;;;;;7.70;99.90;;;;;;5094484;28;19955;-42
2022/03/15 00:30:18;;;;;;;;;;;7.60;99.90;;;;;;5094977;28;19920;-42
2022/03/15 00:32:44;;;;;;;;;;;7.70;99.90;;;;;;5094934;28;19908;-42
2022/03/15 00:35:14;;;;;;;;;;;7.70;99.90;;;;;;5094950;28;19916;-41
2022/03/15 00:37:39;;;;;;;;;;;7.60;99.90;;;;;;5094884;28;19916;-42
2022/03/15 00:40:05;;;;;;;;;;;7.70;99.90;;;;;;5094747;28;19916;-41
2022/03/15 00:42:31;;;;;;;;;;;7.70;99.90;;;;;;5094671;28;19944;-42
2022/03/15 00:45:00;;;;;;;;;;;7.70;99.90;;;;;;5094451;28;19908;-41
2022/03/15 00:47:25;;;;;;;;;;;7.60;99.90;;;;;;5094352;28;19908;-41
2022/03/15 00:49:51;;;;;;;;;;;7.50;99.90;;;;;;5094320;28;19916;-42
2022/03/15 00:52:16;;;;;;;;;;;7.50;99.90;;;;;;5094384;28;19908;-40
2022/03/15 00:54:42;;;;;;;;;;;7.40;99.90;;;;;;5094629;28;20029;-40
2022/03/15 00:57:08;;;;;;;;;;;7.40;99.90;;;;;;5094568;28;19961;-41
2022/03/15 00:59:33;;;;;;;;;;;7.30;99.90;;;;;;5094523;28;20347;-40
2022/03/15 01:01:59;;;;;;;;;;;7.30;99.90;;;;;;5094334;28;20278;-43
2022/03/15 01:04:24;;;;;;;;;;;7.30;99.90;;;;;;5093540;28;20278;-42
2022/03/15 01:06:50;;;;;;;;;;;7.30;99.90;;;;;;5093970;28;19908;-42
2022/03/15 01:09:15;;;;;;;;;;;7.30;99.90;;;;;;5093831;28;19963;-43
2022/03/15 01:11:41;;;;;;;;;;;7.30;99.90;;;;;;5094177;28;19939;-42
2022/03/15 01:14:07;;;;;;;;;;;7.30;99.90;;;;;;5093902;28;19935;-41
2022/03/15 01:16:33;;;;;;;;;;;7.20;99.90;;;;;;5092768;28;19912;-42
2022/03/15 01:18:58;;;;;;;;;;;7.20;99.90;;;;;;5094234;28;19953;-41
2022/03/15 01:21:25;;;;;;;;;;;7.20;99.90;;;;;;5094105;28;19908;-42
2022/03/15 01:23:50;;;;;;;;;;;7.20;99.90;;;;;;5094079;28;19915;-41
2022/03/15 01:26:16;;;;;;;;;;;7.20;99.90;;;;;;5093826;28;19908;-43
2022/03/15 01:28:42;;;;;;;;;;;7.10;99.90;;;;;;5093627;28;19916;-42
2022/03/15 01:31:08;;;;;;;;;;;7.10;99.90;;;;;;5093737;28;19908;-42
2022/03/15 01:33:33;;;;;;;;;;;7.10;99.90;;;;;;5093988;28;20052;-42
2022/03/15 01:35:59;;;;;;;;;;;7.10;99.90;;;;;;5093959;28;19908;-44
2022/03/15 01:38:25;;;;;;;;;;;7.20;99.90;;;;;;5093869;28;20320;-43
2022/03/15 01:40:50;;;;;;;;;;;7.20;99.90;;;;;;5093844;28;19914;-42
2022/03/15 01:43:16;;;;;;;;;;;7.20;99.90;;;;;;5093948;28;19908;-43
2022/03/15 01:45:42;;;;;;;;;;;7.10;99.90;;;;;;5092600;28;19999;-41
2022/03/15 01:48:08;;;;;;;;;;;7.10;99.90;;;;;;5093376;28;19938;-41
2022/03/15 01:50:34;;;;;;;;;;;7.00;99.90;;;;;;5093491;28;19991;-41
2022/03/15 01:53:00;;;;;;;;;;;7.00;99.90;;;;;;5093748;28;19915;-41
2022/03/15 01:55:26;;;;;;;;;;;7.00;99.90;;;;;;5093655;28;20266;-41
2022/03/15 01:57:51;;;;;;;;;;;7.00;99.90;;;;;;5093660;28;20045;-42
2022/03/15 02:00:17;;;;;;;;;;;7.00;99.90;;;;;;5093658;28;19922;-41
2022/03/15 02:02:43;;;;;;;;;;;7.00;99.90;;;;;;5093629;28;19909;-41
2022/03/15 02:05:12;;;;;;;;;;;7.00;99.90;;;;;;5093580;28;19909;-42
2022/03/15 02:07:38;;;;;;;;;;;7.00;99.90;;;;;;5093661;28;19908;-42
2022/03/15 02:10:04;;;;;;;;;;;6.90;99.90;;;;;;5093175;28;20416;-41
2022/03/15 02:12:30;;;;;;;;;;;7.00;99.90;;;;;;5093611;28;20354;-43
2022/03/15 02:15:01;;;;;;;;;;;7.00;99.90;;;;;;5093599;28;19915;-41
2022/03/15 02:17:27;;;;;;;;;;;7.00;99.90;;;;;;5096990;28;19922;-43
2022/03/15 02:19:53;;;;;;;;;;;7.00;99.90;;;;;;5097500;28;20320;-41
2022/03/15 02:22:19;;;;;;;;;;;6.90;99.90;;;;;;5097510;28;20003;-42
2022/03/15 02:24:45;;;;;;;;;;;6.90;99.90;;;;;;5097360;28;20347;-42
2022/03/15 02:27:11;;;;;;;;;;;6.80;99.90;;;;;;5096078;28;19915;-41
2022/03/15 02:29:36;;;;;;;;;;;6.90;99.90;;;;;;5097109;28;19920;-41
2022/03/15 02:32:02;;;;;;;;;;;6.90;99.90;;;;;;5097032;28;19909;-42
2022/03/15 02:34:27;;;;;;;;;;;6.90;99.90;;;;;;5097205;28;19937;-41
2022/03/15 02:36:53;;;;;;;;;;;6.90;99.90;;;;;;5096893;28;19912;-42
2022/03/15 02:39:18;;;;;;;;;;;6.90;99.90;;;;;;5096928;28;19908;-43
2022/03/15 02:41:44;;;;;;;;;;;6.90;99.90;;;;;;5096783;28;20005;-41
2022/03/15 02:44:11;;;;;;;;;;;6.80;99.90;;;;;;5093166;28;19913;-45
2022/03/15 02:46:39;;;;;;;;;;;6.80;99.90;;;;;;5095841;28;19908;-41
2022/03/15 02:49:06;;;;;;;;;;;6.80;99.90;;;;;;5096685;28;19955;-40
2022/03/15 02:51:32;;;;;;;;;;;6.70;99.90;;;;;;5095658;28;19916;-44
2022/03/15 02:53:59;;;;;;;;;;;6.70;99.90;;;;;;5097024;28;20251;-42
2022/03/15 02:56:24;;;;;;;;;;;6.70;99.90;;;;;;5097239;28;19908;-42
2022/03/15 02:58:50;;;;;;;;;;;6.70;99.90;;;;;;5096962;28;19908;-42
2022/03/15 03:01:15;;;;;;;;;;;6.70;99.90;;;;;;5116271;28;19963;-42
2022/03/15 03:03:41;;;;;;;;;;;6.70;99.90;;;;;;5116815;28;19960;-42
2022/03/15 03:06:07;;;;;;;;;;;6.80;99.90;;;;;;5116952;28;19915;-42
2022/03/15 03:08:34;;;;;;;;;;;6.80;99.90;;;;;;5116671;28;19919;-42
2022/03/15 03:11:00;;;;;;;;;;;6.80;99.90;;;;;;5111043;28;19923;-41
2022/03/15 03:13:26;;;;;;;;;;;6.80;99.90;;;;;;5094148;28;19912;-41
2022/03/15 03:15:59;;;;;;;;;;;6.80;99.90;;;;;;5116622;28;19907;-41
2022/03/15 03:18:27;;;;;;;;;;;6.80;99.90;;;;;;5099762;28;19912;-42
2022/03/15 03:20:53;;;;;;;;;;;6.80;99.90;;;;;;5096303;28;19912;-42
2022/03/15 03:23:18;;;;;;;;;;;6.80;99.90;;;;;;5097103;28;19928;-44
2022/03/15 03:25:44;;;;;;;;;;;6.80;99.90;;;;;;5098032;28;19919;-42
2022/03/15 03:28:11;;;;;;;;;;;6.90;99.90;;;;;;5094205;28;20007;-42
2022/03/15 03:30:37;;;;;;;;;;;6.90;99.90;;;;;;5091430;28;20339;-42
2022/03/15 03:33:05;;;;;;;;;;;6.80;99.90;;;;;;5094581;28;19908;-46
2022/03/15 03:35:31;;;;;;;;;;;6.80;99.90;;;;;;5094529;28;19908;-42
2022/03/15 03:37:56;;;;;;;;;;;6.80;99.90;;;;;;5094623;28;20248;-42
2022/03/15 03:40:22;;;;;;;;;;;6.80;99.90;;;;;;5094466;28;19939;-42
2022/03/15 03:42:48;;;;;;;;;;;6.70;99.90;;;;;;5094241;28;19908;-42
2022/03/15 03:45:13;;;;;;;;;;;6.70;99.90;;;;;;5094469;28;19908;-46
2022/03/15 03:47:39;;;;;;;;;;;6.60;99.90;;;;;;5094134;28;19919;-41
2022/03/15 03:50:08;;;;;;;;;;;6.60;99.90;;;;;;5092977;28;19920;-41
2022/03/15 03:52:33;;;;;;;;;;;6.60;99.90;;;;;;5094216;28;20356;-43
2022/03/15 03:55:00;;;;;;;;;;;6.50;99.90;;;;;;5094203;28;19965;-42
2022/03/15 03:57:25;;;;;;;;;;;6.50;99.90;;;;;;5094414;28;19912;-41
2022/03/15 03:59:51;;;;;;;;;;;6.60;99.90;;;;;;5094337;28;19931;-41
2022/03/15 04:02:16;;;;;;;;;;;6.50;99.90;;;;;;5093995;28;20207;-40
2022/03/15 04:04:42;;;;;;;;;;;6.50;99.90;;;;;;5094035;28;20305;-42
2022/03/15 04:07:09;;;;;;;;;;;6.50;99.90;;;;;;5093904;28;19915;-41
2022/03/15 04:09:34;;;;;;;;;;;6.50;99.90;;;;;;5093396;28;19973;-42
2022/03/15 04:12:00;;;;;;;;;;;6.50;99.90;;;;;;5095125;28;19951;-41
2022/03/15 04:14:26;;;;;;;;;;;6.50;99.90;;;;;;5095066;28;20010;-42
2022/03/15 04:16:51;;;;;;;;;;;6.50;99.90;;;;;;5093849;28;20304;-41
2022/03/15 04:19:17;;;;;;;;;;;6.40;99.90;;;;;;5093737;28;20345;-41
2022/03/15 04:21:42;;;;;;;;;;;6.40;99.90;;;;;;5094758;28;19908;-41
2022/03/15 04:24:08;;;;;;;;;;;6.30;99.90;;;;;;5094829;28;20369;-41
2022/03/15 04:26:33;;;;;;;;;;;6.30;99.90;;;;;;5095071;28;19908;-42
2022/03/15 04:28:59;;;;;;;;;;;6.40;99.90;;;;;;5094786;28;19919;-41
2022/03/15 04:31:24;;;;;;;;;;;6.30;99.90;;;;;;5094842;28;19958;-42
2022/03/15 04:33:50;;;;;;;;;;;6.40;99.90;;;;;;5094383;28;19908;-42
2022/03/15 04:36:16;;;;;;;;;;;6.40;99.90;;;;;;5094733;28;20312;-42
2022/03/15 04:38:41;;;;;;;;;;;6.30;99.90;;;;;;5094165;28;19916;-41
2022/03/15 04:41:07;;;;;;;;;;;6.30;99.90;;;;;;5094834;28;19994;-42
2022/03/15 04:43:33;;;;;;;;;;;6.20;99.90;;;;;;5095065;28;19915;-41
2022/03/15 04:45:59;;;;;;;;;;;6.20;99.90;;;;;;5094588;28;19908;-41
2022/03/15 04:48:25;;;;;;;;;;;6.30;99.90;;;;;;5094101;28;20405;-42
2022/03/15 04:50:50;;;;;;;;;;;6.30;99.90;;;;;;5094290;28;20227;-41
2022/03/15 04:53:17;;;;;;;;;;;6.30;99.90;;;;;;5094243;28;19908;-41
2022/03/15 04:55:43;;;;;;;;;;;6.30;99.90;;;;;;5094780;28;19915;-41
2022/03/15 04:58:08;;;;;;;;;;;6.30;99.90;;;;;;5094458;28;19909;-40
2022/03/15 05:00:34;;;;;;;;;;;6.40;99.90;;;;;;5094466;28;20070;-41
2022/03/15 05:02:59;;;;;;;;;;;6.50;99.90;;;;;;5094034;28;19908;-41
2022/03/15 05:05:25;;;;;;;;;;;6.50;99.90;;;;;;5094196;28;19911;-40
2022/03/15 05:07:50;;;;;;;;;;;6.60;99.90;;;;;;5093942;28;20290;-41
2022/03/15 05:13:03;;;;;;;;;;;6.50;99.90;;;;;;5093876;28;20345;-41
2022/03/15 05:15:29;;;;;;;;;;;6.60;99.90;;;;;;5093629;28;19908;-41
2022/03/15 05:17:55;;;;;;;;;;;6.70;99.90;;;;;;5093591;28;19912;-42
2022/03/15 05:20:20;;;;;;;;;;;6.70;99.90;;;;;;5094332;28;19916;-41
2022/03/15 05:22:46;;;;;;;;;;;6.70;99.90;;;;;;5093894;28;19951;-41
2022/03/15 05:25:13;;;;;;;;;;;6.60;99.90;;;;;;5093902;28;19943;-41
2022/03/15 05:27:39;;;;;;;;;;;6.60;99.90;;;;;;5093743;28;19965;-41
2022/03/15 05:30:04;;;;;;;;;;;6.60;99.90;;;;;;5091381;28;19924;-42
2022/03/15 05:32:30;;;;;;;;;;;6.60;99.90;;;;;;5091118;28;20431;-42
2022/03/15 05:34:56;;;;;;;;;;;6.60;99.90;;;;;;5092088;28;20368;-42
2022/03/15 05:37:22;;;;;;;;;;;6.70;99.90;;;;;;5092077;28;19915;-43
2022/03/15 05:39:47;;;;;;;;;;;6.60;99.90;;;;;;5087155;28;19961;-43
2022/03/15 05:42:13;;;;;;;;;;;6.60;99.90;;;;;;5080063;28;19916;-42
2022/03/15 05:44:39;;;;;;;;;;;6.50;99.90;;;;;;5092626;28;19915;-41
2022/03/15 05:47:05;;;;;;;;;;;6.60;99.90;;;;;;5095668;28;20000;-42
2022/03/15 05:49:30;;;;;;;;;;;6.70;99.90;;;;;;5092131;28;19943;-41
2022/03/15 05:51:56;;;;;;;;;;;6.70;99.90;;;;;;5090929;28;19960;-45
2022/03/15 05:54:21;;;;;;;;;;;6.60;99.90;;;;;;5094385;28;19966;-42
2022/03/15 05:56:47;;;;;;;;;;;6.70;99.90;;;;;;5097200;28;19973;-44
2022/03/15 05:59:13;;;;;;;;;;;6.80;99.90;;;;;;5097141;28;19916;-43
2022/03/15 06:01:39;;;;;;;;;;;6.70;99.90;;;;;;5102200;28;20275;-41
2022/03/15 06:04:05;;;;;;;;;;;6.70;99.90;;;;;;5095114;28;19909;-45
2022/03/15 06:06:31;;;;;;;;;;;6.70;99.90;;;;;;5088153;28;19913;-43
2022/03/15 06:08:56;;;;;;;;;;;6.80;99.90;;;;;;5081887;28;19920;-43
2022/03/15 06:11:22;;;;;;;;;;;6.80;99.90;;;;;;5086301;28;19916;-42
2022/03/15 06:13:47;;;;;;;;;;;6.90;99.90;;;;;;5092923;28;19912;-41
2022/03/15 06:16:13;;;;;;;;;;;6.80;99.90;;;;;;5096873;28;19909;-42
2022/03/15 06:18:39;;;;;;;;;;;6.80;99.90;;;;;;5096710;28;19968;-44
2022/03/15 06:21:04;;;;;;;;;;;6.60;99.90;;;;;;5096895;28;19919;-42
2022/03/15 06:23:30;;;;;;;;;;;6.40;99.90;;;;;;5096461;28;20019;-43
2022/03/15 06:25:56;;;;;;;;;;;6.50;99.90;;;;;;5096461;28;19908;-43
2022/03/15 06:28:21;;;;;;;;;;;6.70;99.90;;;;;;5095988;28;19919;-43
2022/03/15 06:30:47;;;;;;;;;;;6.80;99.90;;;;;;5097147;28;19926;-43
2022/03/15 06:33:12;;;;;;;;;;;7.00;99.90;;;;;;5096317;28;19946;-43
2022/03/15 06:35:38;;;;;;;;;;;7.00;99.90;;;;;;5096013;28;19936;-44
2022/03/15 06:38:04;;;;;;;;;;;7.20;99.90;;;;;;5095142;28;19948;-43
2022/03/15 06:40:32;;;;;;;;;;;7.30;99.90;;;;;;5094933;28;19912;-44
2022/03/15 06:42:58;;;;;;;;;;;7.30;99.90;;;;;;5096016;28;19912;-44
2022/03/15 06:45:23;;;;;;;;;;;7.40;99.90;;;;;;5096138;28;19955;-43
2022/03/15 06:47:49;;;;;;;;;;;7.50;99.90;;;;;;5094153;28;19939;-43
2022/03/15 06:50:15;;;;;;;;;;;7.60;99.90;;;;;;5095890;28;19928;-43
2022/03/15 06:52:41;;;;;;;;;;;7.50;99.90;;;;;;5096221;28;19908;-43
2022/03/15 06:55:07;;;;;;;;;;;7.70;99.90;;;;;;5128846;27;20397;-43
2022/03/15 06:57:34;;;;;;;;;;;7.70;99.90;;;;;;5095829;28;20010;-43
2022/03/15 07:00:00;;;;;;;;;;;7.60;99.90;;;;;;5095607;28;19930;-42
2022/03/15 07:02:26;;;;;;;;;;;7.80;99.90;;;;;;5094709;28;20401;-43
2022/03/15 07:04:51;;;;;;;;;;;7.80;99.90;;;;;;5095672;28;19920;-42
2022/03/15 07:07:17;;;;;;;;;;;8.10;99.90;;;;;;5095946;28;19916;-44
2022/03/15 07:09:43;;;;;;;;;;;8.30;99.90;;;;;;5095309;28;20347;-44
2022/03/15 07:12:08;;;;;;;;;;;8.50;99.90;;;;;;5094391;28;19908;-44
2022/03/15 07:14:34;;;;;;;;;;;8.60;99.90;;;;;;5095344;28;19908;-43
2022/03/15 07:17:00;;;;;;;;;;;8.40;99.90;;;;;;5095546;28;19915;-43
2022/03/15 07:19:27;;;;;;;;;;;8.80;99.90;;;;;;5095236;28;19990;-43
2022/03/15 07:21:53;;;;;;;;;;;8.90;99.90;;;;;;5095540;28;20065;-42
2022/03/15 07:24:18;;;;;;;;;;;8.90;99.90;;;;;;5094878;28;19970;-42
2022/03/15 07:26:44;;;;;;;;;;;8.40;99.90;;;;;;5095081;28;20474;-45
2022/03/15 07:29:09;;;;;;;;;;;8.50;99.90;;;;;;5095024;28;19984;-45
2022/03/15 07:31:35;;;;;;;;;;;8.60;99.90;;;;;;5095145;28;19916;-42
2022/03/15 07:34:00;;;;;;;;;;;8.50;99.90;;;;;;5095274;28;20014;-43
2022/03/15 07:36:26;;;;;;;;;;;8.70;99.90;;;;;;5111050;28;20196;-43
2022/03/15 07:38:51;;;;;;;;;;;8.80;99.90;;;;;;5094147;28;20007;-43
2022/03/15 07:41:21;;;;;;;;;;;9.00;99.90;;;;;;5094794;28;19966;-42
2022/03/15 07:43:47;;;;;;;;;;;9.30;99.90;;;;;;5095197;28;19908;-47
2022/03/15 07:46:12;;;;;;;;;;;9.20;99.90;;;;;;5094923;28;20011;-44
2022/03/15 07:48:38;;;;;;;;;;;9.10;99.90;;;;;;5093193;28;19944;-43
2022/03/15 07:51:03;;;;;;;;;;;9.10;99.90;;;;;;5095184;28;19918;-42
2022/03/15 07:53:29;;;;;;;;;;;9.20;99.90;;;;;;5094876;28;20271;-44
2022/03/15 07:55:56;;;;;;;;;;;9.20;99.90;;;;;;5095031;28;20030;-44
2022/03/15 07:58:21;;;;;;;;;;;9.20;99.90;;;;;;5094579;28;20314;-42
2022/03/15 08:00:48;;;;;;;;;;;9.30;99.90;;;;;;5094611;28;19908;-43
2022/03/15 08:03:13;;;;;;;;;;;9.20;99.90;;;;;;5094961;28;20021;-44
2022/03/15 08:05:39;;;;;;;;;;;9.20;99.90;;;;;;5094808;28;20363;-42
2022/03/15 08:08:06;;;;;;;;;;;9.20;99.90;;;;;;5093710;28;19921;-43
2022/03/15 08:10:31;;;;;;;;;;;9.30;99.90;;;;;;5127592;27;19912;-42
2022/03/15 08:12:57;;;;;;;;;;;9.40;99.90;;;;;;5094648;28;19908;-43
2022/03/15 08:15:23;;;;;;;;;;;9.40;99.90;;;;;;5094906;28;19909;-45
2022/03/15 08:17:48;;;;;;;;;;;9.30;99.90;;;;;;5094918;28;20220;-42
2022/03/15 08:20:18;;;;;;;;;;;9.40;99.90;;;;;;5094809;28;20019;-42
2022/03/15 08:22:44;;;;;;;;;;;9.40;99.90;;;;;;5094613;28;20335;-45
2022/03/15 08:25:09;;;;;;;;;;;9.50;99.90;;;;;;5094620;28;19915;-45
2022/03/15 08:27:35;;;;;;;;;;;9.60;99.90;;;;;;5094769;28;19912;-43
2022/03/15 08:30:00;;;;;;;;;;;9.50;99.90;;;;;;5094765;28;19974;-44
2022/03/15 08:32:26;;;;;;;;;;;9.60;99.90;;;;;;5094537;28;19962;-45
2022/03/15 08:34:52;;;;;;;;;;;9.60;99.90;;;;;;5094307;28;19908;-43
2022/03/15 08:37:17;;;;;;;;;;;9.60;99.90;;;;;;5093808;28;20254;-46
2022/03/15 08:39:43;;;;;;;;;;;9.50;99.90;;;;;;5094470;28;19964;-42
2022/03/15 08:42:09;;;;;;;;;;;9.50;99.90;;;;;;5094351;28;20019;-43
2022/03/15 08:44:34;;;;;;;;;;;9.70;99.90;;;;;;5094006;28;19912;-43
2022/03/15 08:47:00;;;;;;;;;;;9.90;99.90;;;;;;5094208;28;20397;-45
2022/03/15 08:49:25;;;;;;;;;;;10.00;99.90;;;;;;5094118;28;20215;-42
2022/03/15 08:51:51;;;;;;;;;;;10.10;99.90;;;;;;5092641;28;20365;-43
2022/03/15 08:54:18;;;;;;;;;;;10.10;99.90;;;;;;5093106;28;20342;-44
2022/03/15 08:56:44;;;;;;;;;;;10.00;99.90;;;;;;5092587;28;20408;-45
2022/03/15 08:59:12;;;;;;;;;;;10.10;99.90;;;;;;5094066;28;19999;-43
2022/03/15 09:01:41;;;;;;;;;;;10.20;99.90;;;;;;5094259;28;19909;-44
2022/03/15 09:04:06;;;;;;;;;;;10.20;99.90;;;;;;5093691;28;20342;-43
2022/03/15 09:06:32;;;;;;;;;;;10.40;99.90;;;;;;5093667;28;20010;-42
2022/03/15 09:09:00;;;;;;;;;;;10.60;99.90;;;;;;5093572;28;19920;-45
2022/03/15 09:11:30;;;;;;;;;;;10.80;99.90;;;;;;5093978;28;20019;-42
2022/03/15 09:13:55;;;;;;;;;;;11.10;99.90;;;;;;5092415;28;19916;-44
2022/03/15 09:16:21;;;;;;;;;;;10.70;99.90;;;;;;5093592;28;20338;-43
2022/03/15 09:18:47;;;;;;;;;;;10.50;99.90;;;;;;5093600;28;19951;-42
2022/03/15 09:21:12;;;;;;;;;;;10.70;99.90;;;;;;5093843;28;19914;-47
2022/03/15 09:23:38;;;;;;;;;;;10.60;99.90;;;;;;5093839;28;19908;-42
2022/03/15 09:26:04;;;;;;;;;;;10.90;99.90;;;;;;5093000;28;19915;-43
2022/03/15 09:28:30;;;;;;;;;;;11.10;99.90;;;;;;5093224;28;20354;-42
2022/03/15 09:30:56;;;;;;;;;;;10.90;99.90;;;;;;5093769;28;19943;-42
2022/03/15 09:33:23;;;;;;;;;;;10.90;99.90;;;;;;5092079;28;19915;-43
2022/03/15 09:35:49;;;;;;;;;;;10.80;99.90;;;;;;5093471;28;19983;-45
2022/03/15 09:38:14;;;;;;;;;;;11.00;99.90;;;;;;5093579;28;20108;-44
2022/03/15 09:40:40;;;;;;;;;;;11.30;99.90;;;;;;5092298;28;19916;-44
2022/03/15 09:43:06;;;;;;;;;;;11.60;99.90;;;;;;5093157;28;19908;-44
2022/03/15 09:45:35;;;;;;;;;;;12.00;99.90;;;;;;5093417;28;19915;-45
2022/03/15 09:48:03;;;;;;;;;;;12.40;99.90;;;;;;5093221;28;19912;-43
2022/03/15 09:50:29;;;;;;;;;;;12.50;98.80;;;;;;5093330;28;20163;-46
2022/03/15 09:52:55;;;;;;;;;;;12.60;99.90;;;;;;5092137;28;19957;-44
2022/03/15 09:55:21;;;;;;;;;;;12.50;99.90;;;;;;5093347;28;19915;-45
2022/03/15 09:57:46;;;;;;;;;;;12.80;99.70;;;;;;5091837;28;19990;-44
2022/03/15 10:00:15;;;;;;;;;;;12.50;99.10;;;;;;5093456;28;20339;-44
2022/03/15 10:02:42;;;;;;;;;;;12.10;99.70;;;;;;5092918;28;19909;-45
2022/03/15 10:05:08;;;;;;;;;;;12.00;99.90;;;;;;5092966;28;19908;-45
2022/03/15 10:07:35;;;;;;;;;;;12.20;99.90;;;;;;5092987;28;19916;-44
2022/03/15 10:10:03;;;;;;;;;;;12.20;99.90;;;;;;5092918;28;19916;-42
2022/03/15 10:12:28;;;;;;;;;;;12.10;99.90;;;;;;5092988;28;19912;-44
2022/03/15 10:14:56;;;;;;;;;;;12.10;99.90;;;;;;5092976;28;19908;-43
2022/03/15 10:17:21;;;;;;;;;;;11.80;99.60;;;;;;5092530;28;19908;-44
2022/03/15 10:19:55;;;;;;;;;;;11.90;99.90;;;;;;5092688;28;19920;-43
2022/03/15 10:22:21;;;;;;;;;;;12.00;99.90;;;;;;5092886;28;19961;-45
2022/03/15 10:24:47;;;;;;;;;;;12.30;99.30;;;;;;5093417;28;19908;-43
2022/03/15 10:27:14;;;;;;;;;;;12.20;99.90;;;;;;5092889;28;20265;-43
2022/03/15 10:29:42;;;;;;;;;;;12.40;99.90;;;;;;5092902;28;19921;-43
2022/03/15 10:32:08;;;;;;;;;;;12.50;99.30;;;;;;5093057;28;20010;-47
2022/03/15 10:34:34;;;;;;;;;;;12.70;99.80;;;;;;5091585;28;19952;-44
2022/03/15 10:36:59;;;;;;;;;;;12.90;99.90;;;;;;5093930;28;19908;-45
2022/03/15 10:39:26;;;;;;;;;;;13.10;99.00;;;;;;5095863;28;19941;-43
2022/03/15 10:41:57;;;;;;;;;;;13.20;98.90;;;;;;5096388;28;19917;-46
2022/03/15 10:44:22;;;;;;;;;;;13.20;99.30;;;;;;5096602;28;19962;-46
2022/03/15 10:46:58;;;;;;;;;;;13.20;98.40;;;;;;5096324;28;19912;-43
2022/03/15 10:49:24;;;;;;;;;;;12.70;98.70;;;;;;5096340;28;19918;-46
2022/03/15 10:51:49;;;;;;;;;;;12.80;99.80;;;;;;5096160;28;20368;-44
2022/03/15 10:54:15;;;;;;;;;;;12.80;99.90;;;;;;5096574;28;20003;-43
2022/03/15 10:56:40;;;;;;;;;;;13.10;99.90;;;;;;5096151;28;20354;-47
2022/03/15 10:59:09;;;;;;;;;;;13.60;99.90;;;;;;5096009;28;19908;-44
2022/03/15 11:01:36;;;;;;;;;;;13.50;98.80;;;;;;5096312;28;19996;-44
2022/03/15 11:04:03;;;;;;;;;;;13.40;99.60;;;;;;5095953;28;19915;-44
2022/03/15 11:06:31;;;;;;;;;;;13.50;99.70;;;;;;5095948;28;19908;-43
2022/03/15 11:09:00;;;;;;;;;;;13.80;99.90;;;;;;5095983;28;20312;-46
2022/03/15 11:11:26;;;;;;;;;;;13.90;99.40;;;;;;5096257;28;19934;-45
2022/03/15 11:14:00;;;;;;;;;;;14.20;99.70;;;;;;5095625;28;20396;-44
2022/03/15 11:16:28;;;;;;;;;;;14.50;97.60;;;;;;5095896;28;19918;-44
2022/03/15 11:18:54;;;;;;;;;;;14.30;98.60;;;;;;5095428;28;19951;-48
2022/03/15 11:21:20;;;;;;;;;;;14.30;99.90;;;;;;5095827;28;19951;-43
2022/03/15 11:23:46;;;;;;;;;;;14.50;98.70;;;;;;5095370;28;20015;-45
2022/03/15 11:26:17;;;;;;;;;;;14.60;98.30;;;;;;5095358;28;19908;-43
2022/03/15 11:28:44;;;;;;;;;;;14.20;98.00;;;;;;5095527;28;20007;-42
2022/03/15 11:31:09;;;;;;;;;;;13.80;98.70;;;;;;5095209;28;19908;-45
2022/03/15 11:33:36;;;;;;;;;;;13.60;99.00;;;;;;5095240;28;19912;-43
2022/03/15 11:36:04;;;;;;;;;;;13.60;99.10;;;;;;5095401;28;19908;-42
2022/03/15 11:38:30;;;;;;;;;;;13.50;99.80;;;;;;5094936;28;20283;-46
2022/03/15 11:40:56;;;;;;;;;;;13.60;99.60;;;;;;5094558;28;19915;-45
2022/03/15 11:43:40;;;;;;;;;;;13.80;99.90;;;;;;5094726;28;19908;-45
2022/03/15 11:46:24;;;;;;;;;;;14.00;99.30;;;;;;5094839;28;19955;-44
2022/03/15 11:48:59;;;;;;;;;;;14.00;99.70;;;;;;5094979;28;19912;-45
2022/03/15 11:51:37;;;;;;;;;;;13.70;99.60;;;;;;5095007;28;20014;-43
2022/03/15 11:54:15;;;;;;;;;;;13.70;99.90;;;;;;5094537;28;19947;-42
2022/03/15 11:56:41;;;;;;;;;;;13.90;99.90;;;;;;5095221;28;19962;-43
2022/03/15 11:59:06;;;;;;;;;;;13.90;99.60;;;;;;5095012;28;20335;-45
2022/03/15 12:01:41;;;;;;;;;;;14.00;99.90;;;;;;5094936;28;19908;-43
2022/03/15 12:04:09;;;;;;;;;;;14.10;99.90;;;;;;5093542;28;19909;-45
2022/03/15 12:06:35;;;;;;;;;;;14.30;99.90;;;;;;5094365;28;19912;-42
2022/03/15 12:09:10;;;;;;;;;;;14.30;99.90;;;;;;5094920;28;19919;-45
2022/03/15 12:11:37;;;;;;;;;;;14.30;99.90;;;;;;5094845;28;20435;-44
2022/03/15 12:14:05;;;;;;;;;;;14.30;99.90;;;;;;5093943;28;19994;-45
2022/03/15 12:16:33;;;;;;;;;;;14.30;99.90;;;;;;5094574;28;20350;-47
2022/03/15 12:19:06;;;;;;;;;;;14.30;98.90;;;;;;5094902;28;19915;-44
2022/03/15 12:21:31;;;;;;;;;;;14.40;99.90;;;;;;5094758;28;19927;-45
2022/03/15 12:23:57;;;;;;;;;;;14.50;99.90;;;;;;5094103;28;19909;-43
2022/03/15 12:26:22;;;;;;;;;;;14.40;99.90;;;;;;5094476;28;20049;-45
2022/03/15 12:28:57;;;;;;;;;;;14.30;99.90;;;;;;5093981;28;20003;-42
2022/03/15 12:31:35;;;;;;;;;;;14.10;99.90;;;;;;5094429;28;19908;-43
2022/03/15 12:34:01;;;;;;;;;;;14.00;99.90;;;;;;5094203;28;19952;-45
2022/03/15 12:36:35;;;;;;;;;;;13.90;99.90;;;;;;5092889;28;20351;-48
2022/03/15 12:39:06;;;;;;;;;;;13.90;99.90;;;;;;5094488;28;20006;-45
2022/03/15 12:41:32;;;;;;;;;;;13.70;99.90;;;;;;5094930;28;19908;-44
2022/03/15 12:43:57;;;;;;;;;;;13.80;99.90;;;;;;5094371;28;20429;-43
2022/03/15 12:46:30;;;;;;;;;;;13.80;99.90;;;;;;5093706;28;20052;-48
2022/03/15 12:49:04;;;;;;;;;;;13.60;99.90;;;;;;5093807;28;19916;-43
2022/03/15 12:51:37;;;;;;;;;;;13.60;99.90;;;;;;5094214;28;19912;-48
2022/03/15 12:54:10;;;;;;;;;;;13.40;99.90;;;;;;5094118;28;19912;-46
2022/03/15 12:56:47;;;;;;;;;;;13.30;99.90;;;;;;5093876;28;19909;-45
2022/03/15 12:59:31;;;;;;;;;;;13.20;99.90;;;;;;5092145;28;19916;-45
2022/03/15 13:01:58;;;;;;;;;;;13.10;99.90;;;;;;5093801;28;20346;-44
2022/03/15 13:04:24;;;;;;;;;;;13.10;99.90;;;;;;5093765;28;19999;-44
2022/03/15 13:06:49;;;;;;;;;;;13.10;99.90;;;;;;5093591;28;20384;-43
2022/03/15 13:09:23;;;;;;;;;;;13.00;99.90;;;;;;5093804;28;19916;-48
2022/03/15 13:11:49;;;;;;;;;;;13.00;99.90;;;;;;5093947;28;19923;-45
2022/03/15 13:14:14;;;;;;;;;;;13.00;99.90;;;;;;5092966;28;19912;-43
2022/03/15 13:16:43;;;;;;;;;;;13.00;99.90;;;;;;5093810;28;20351;-44
2022/03/15 13:19:10;;;;;;;;;;;12.90;99.90;;;;;;5093856;28;19908;-45
2022/03/15 13:21:38;;;;;;;;;;;12.90;99.90;;;;;;5093340;28;19914;-46
2022/03/15 13:24:08;;;;;;;;;;;12.90;99.90;;;;;;5093350;28;20074;-44
2022/03/15 13:26:33;;;;;;;;;;;12.90;99.90;;;;;;5093457;28;19940;-45
2022/03/15 13:29:00;;;;;;;;;;;12.80;99.90;;;;;;5092679;28;19912;-45
2022/03/15 13:31:26;;;;;;;;;;;12.80;99.90;;;;;;5093720;28;19912;-48
2022/03/15 13:33:56;;;;;;;;;;;12.70;99.90;;;;;;5092629;28;21604;-46
2022/03/15 13:36:24;;;;;;;;;;;12.70;99.90;;;;;;5093186;28;20003;-45
2022/03/15 13:38:55;;;;;;;;;;;12.60;99.90;;;;;;5093366;28;19916;-43
2022/03/15 13:41:25;;;;;;;;;;;12.50;99.90;;;;;;5093078;28;19991;-45
2022/03/15 13:43:51;;;;;;;;;;;12.50;99.90;;;;;;5093078;28;19930;-44
2022/03/15 13:46:18;;;;;;;;;;;12.50;99.90;;;;;;5091970;28;19908;-45
2022/03/15 13:48:44;;;;;;;;;;;12.50;99.90;;;;;;5091595;28;19916;-43
2022/03/15 13:51:12;;;;;;;;;;;12.40;99.90;;;;;;5091637;28;19912;-49
2022/03/15 13:53:39;;;;;;;;;;;12.40;99.90;;;;;;5093086;28;20324;-44
2022/03/15 13:56:20;;;;;;;;;;;12.50;99.90;;;;;;5093206;28;19909;-46
2022/03/15 13:59:01;;;;;;;;;;;12.40;99.90;;;;;;5092960;28;19916;-45
2022/03/15 14:01:33;;;;;;;;;;;12.40;99.90;;;;;;5093336;28;20266;-45
2022/03/15 14:04:17;;;;;;;;;;;12.40;99.90;;;;;;5092032;28;19908;-44
2022/03/15 14:06:45;;;;;;;;;;;12.30;99.90;;;;;;5092503;28;20301;-43
2022/03/15 14:09:22;;;;;;;;;;;12.30;99.90;;;;;;5092862;28;20342;-46
2022/03/15 14:11:49;;;;;;;;;;;12.40;99.90;;;;;;5095514;28;19965;-44
2022/03/15 14:14:21;;;;;;;;;;;12.30;99.90;;;;;;5096931;28;19931;-42
2022/03/15 14:16:50;;;;;;;;;;;12.30;99.90;;;;;;5097242;28;19908;-43
2022/03/15 14:19:19;;;;;;;;;;;12.30;99.90;;;;;;5095705;28;20362;-43
2022/03/15 14:21:48;;;;;;;;;;;12.20;99.90;;;;;;5097179;28;20278;-45
2022/03/15 14:24:23;;;;;;;;;;;12.10;99.90;;;;;;5096589;28;20377;-45
2022/03/15 14:26:49;;;;;;;;;;;12.10;99.90;;;;;;5096269;28;19908;-45